sensor_id;sensor_type;location;lat;lon;timestamp;P1;durP1;ratioP1;P2;durP2;ratioP2
41829;SDS011;38614;43.472;23.936;2022-12-31T00:01:59;115.32;;;47.20;;
41829;SDS011;38614;43.472;23.936;2022-12-31T00:04:47;104.32;;;43.88;;
41829;SDS011;38614;43.472;23.936;2022-12-31T00:07:35;88.10;;;41.90;;
41829;SDS011;38614;43.472;23.936;2022-12-31T00:10:22;96.00;;;44.40;;
41829;SDS011;38614;43.472;23.936;2022-12-31T00:13:11;106.60;;;45.85;;
41829;SDS011;38614;43.472;23.936;2022-12-31T00:16:06;99.28;;;44.38;;
41829;SDS011;38614;43.472;23.936;2022-12-31T00:18:58;102.97;;;47.10;;
41829;SDS011;38614;43.472;23.936;2022-12-31T00:21:47;108.07;;;49.53;;
41829;SDS011;38614;43.472;23.936;2022-12-31T00:24:34;88.97;;;44.30;;
41829;SDS011;38614;43.472;23.936;2022-12-31T00:27:22;105.60;;;45.35;;
41829;SDS011;38614;43.472;23.936;2022-12-31T00:30:10;98.35;;;45.83;;
41829;SDS011;38614;43.472;23.936;2022-12-31T00:32:58;110.10;;;46.20;;
41829;SDS011;38614;43.472;23.936;2022-12-31T00:35:46;85.47;;;41.28;;
41829;SDS011;38614;43.472;23.936;2022-12-31T00:38:34;98.13;;;43.08;;
41829;SDS011;38614;43.472;23.936;2022-12-31T00:41:23;94.18;;;43.42;;
41829;SDS011;38614;43.472;23.936;2022-12-31T00:44:11;94.88;;;40.70;;
41829;SDS011;38614;43.472;23.936;2022-12-31T00:47:01;95.68;;;40.30;;
41829;SDS011;38614;43.472;23.936;2022-12-31T00:49:49;88.50;;;41.83;;
41829;SDS011;38614;43.472;23.936;2022-12-31T00:52:37;91.68;;;42.65;;
41829;SDS011;38614;43.472;23.936;2022-12-31T00:55:25;88.15;;;40.83;;
41829;SDS011;38614;43.472;23.936;2022-12-31T00:58:12;88.28;;;41.60;;
41829;SDS011;38614;43.472;23.936;2022-12-31T01:01:13;89.75;;;42.00;;
41829;SDS011;38614;43.472;23.936;2022-12-31T01:04:02;93.53;;;41.55;;
41829;SDS011;38614;43.472;23.936;2022-12-31T01:06:55;87.03;;;41.10;;
41829;SDS011;38614;43.472;23.936;2022-12-31T01:09:42;110.07;;;43.63;;
41829;SDS011;38614;43.472;23.936;2022-12-31T01:12:30;117.00;;;51.47;;
41829;SDS011;38614;43.472;23.936;2022-12-31T01:15:18;100.38;;;51.50;;
41829;SDS011;38614;43.472;23.936;2022-12-31T01:18:08;122.65;;;53.00;;
41829;SDS011;38614;43.472;23.936;2022-12-31T01:20:56;105.38;;;52.75;;
41829;SDS011;38614;43.472;23.936;2022-12-31T01:23:49;108.22;;;52.72;;
41829;SDS011;38614;43.472;23.936;2022-12-31T01:26:37;107.10;;;50.03;;
41829;SDS011;38614;43.472;23.936;2022-12-31T01:29:25;115.78;;;50.53;;
41829;SDS011;38614;43.472;23.936;2022-12-31T01:32:13;104.68;;;47.15;;
41829;SDS011;38614;43.472;23.936;2022-12-31T01:35:01;95.47;;;45.03;;
41829;SDS011;38614;43.472;23.936;2022-12-31T01:37:48;116.28;;;50.35;;
41829;SDS011;38614;43.472;23.936;2022-12-31T01:40:37;119.53;;;51.22;;
41829;SDS011;38614;43.472;23.936;2022-12-31T01:46:47;107.93;;;46.33;;
41829;SDS011;38614;43.472;23.936;2022-12-31T01:49:50;87.93;;;39.40;;
41829;SDS011;38614;43.472;23.936;2022-12-31T01:52:46;82.00;;;38.95;;
41829;SDS011;38614;43.472;23.936;2022-12-31T01:58:40;85.75;;;41.28;;
41829;SDS011;38614;43.472;23.936;2022-12-31T02:01:34;93.70;;;40.03;;
41829;SDS011;38614;43.472;23.936;2022-12-31T02:04:23;98.47;;;39.75;;
41829;SDS011;38614;43.472;23.936;2022-12-31T02:07:12;91.90;;;39.95;;
41829;SDS011;38614;43.472;23.936;2022-12-31T02:10:02;93.38;;;44.08;;
41829;SDS011;38614;43.472;23.936;2022-12-31T02:12:50;95.00;;;42.58;;
41829;SDS011;38614;43.472;23.936;2022-12-31T02:21:50;80.25;;;35.58;;
41829;SDS011;38614;43.472;23.936;2022-12-31T02:25:35;83.10;;;42.50;;
41829;SDS011;38614;43.472;23.936;2022-12-31T02:31:36;62.17;;;30.42;;
41829;SDS011;38614;43.472;23.936;2022-12-31T02:37:26;61.92;;;28.20;;
41829;SDS011;38614;43.472;23.936;2022-12-31T02:40:18;64.75;;;29.60;;
41829;SDS011;38614;43.472;23.936;2022-12-31T02:43:07;78.80;;;34.42;;
41829;SDS011;38614;43.472;23.936;2022-12-31T02:46:03;74.40;;;34.72;;
41829;SDS011;38614;43.472;23.936;2022-12-31T02:49:07;62.72;;;29.77;;
41829;SDS011;38614;43.472;23.936;2022-12-31T02:52:13;45.00;;;21.40;;
41829;SDS011;38614;43.472;23.936;2022-12-31T02:55:10;35.55;;;16.23;;
41829;SDS011;38614;43.472;23.936;2022-12-31T02:58:30;28.15;;;15.38;;
41829;SDS011;38614;43.472;23.936;2022-12-31T03:01:38;29.90;;;14.43;;
41829;SDS011;38614;43.472;23.936;2022-12-31T03:07:35;24.98;;;12.82;;
41829;SDS011;38614;43.472;23.936;2022-12-31T03:10:23;35.70;;;14.35;;
41829;SDS011;38614;43.472;23.936;2022-12-31T03:13:11;35.65;;;15.50;;
41829;SDS011;38614;43.472;23.936;2022-12-31T03:16:01;36.33;;;18.10;;
41829;SDS011;38614;43.472;23.936;2022-12-31T03:18:49;36.08;;;18.30;;
41829;SDS011;38614;43.472;23.936;2022-12-31T03:21:56;31.38;;;14.63;;
41829;SDS011;38614;43.472;23.936;2022-12-31T03:25:07;22.55;;;11.32;;
41829;SDS011;38614;43.472;23.936;2022-12-31T03:28:24;36.78;;;12.60;;
41829;SDS011;38614;43.472;23.936;2022-12-31T03:31:13;35.85;;;11.45;;
41829;SDS011;38614;43.472;23.936;2022-12-31T03:34:04;25.83;;;11.05;;
41829;SDS011;38614;43.472;23.936;2022-12-31T03:36:51;38.97;;;12.00;;
41829;SDS011;38614;43.472;23.936;2022-12-31T03:39:39;37.78;;;17.60;;
41829;SDS011;38614;43.472;23.936;2022-12-31T03:42:27;50.42;;;23.08;;
41829;SDS011;38614;43.472;23.936;2022-12-31T03:45:15;69.90;;;23.42;;
41829;SDS011;38614;43.472;23.936;2022-12-31T03:48:04;55.40;;;20.38;;
41829;SDS011;38614;43.472;23.936;2022-12-31T03:50:53;56.13;;;16.48;;
41829;SDS011;38614;43.472;23.936;2022-12-31T03:53:41;40.25;;;14.40;;
41829;SDS011;38614;43.472;23.936;2022-12-31T03:56:29;50.47;;;11.73;;
41829;SDS011;38614;43.472;23.936;2022-12-31T03:59:16;35.72;;;13.40;;
41829;SDS011;38614;43.472;23.936;2022-12-31T04:02:04;38.47;;;13.68;;
41829;SDS011;38614;43.472;23.936;2022-12-31T04:04:55;37.73;;;14.57;;
41829;SDS011;38614;43.472;23.936;2022-12-31T04:07:43;24.02;;;10.57;;
41829;SDS011;38614;43.472;23.936;2022-12-31T04:10:31;24.38;;;10.90;;
41829;SDS011;38614;43.472;23.936;2022-12-31T04:13:18;16.35;;;7.80;;
41829;SDS011;38614;43.472;23.936;2022-12-31T04:16:08;17.77;;;8.85;;
41829;SDS011;38614;43.472;23.936;2022-12-31T04:18:56;65.68;;;44.67;;
41829;SDS011;38614;43.472;23.936;2022-12-31T04:21:45;44.20;;;27.17;;
41829;SDS011;38614;43.472;23.936;2022-12-31T04:24:32;44.50;;;28.55;;
41829;SDS011;38614;43.472;23.936;2022-12-31T04:27:20;60.35;;;31.80;;
41829;SDS011;38614;43.472;23.936;2022-12-31T04:30:11;41.42;;;23.40;;
41829;SDS011;38614;43.472;23.936;2022-12-31T04:32:59;48.17;;;20.52;;
41829;SDS011;38614;43.472;23.936;2022-12-31T04:35:47;43.08;;;17.83;;
41829;SDS011;38614;43.472;23.936;2022-12-31T04:38:40;42.60;;;20.23;;
41829;SDS011;38614;43.472;23.936;2022-12-31T04:41:38;42.47;;;18.10;;
41829;SDS011;38614;43.472;23.936;2022-12-31T04:48:57;41.10;;;19.20;;
41829;SDS011;38614;43.472;23.936;2022-12-31T04:55:59;27.60;;;14.20;;
41829;SDS011;38614;43.472;23.936;2022-12-31T04:58:49;25.10;;;12.82;;
41829;SDS011;38614;43.472;23.936;2022-12-31T05:01:39;21.85;;;13.35;;
41829;SDS011;38614;43.472;23.936;2022-12-31T05:04:43;28.05;;;12.98;;
41829;SDS011;38614;43.472;23.936;2022-12-31T05:07:35;37.58;;;14.57;;
41829;SDS011;38614;43.472;23.936;2022-12-31T05:10:35;34.38;;;14.93;;
41829;SDS011;38614;43.472;23.936;2022-12-31T05:13:22;52.60;;;22.60;;
41829;SDS011;38614;43.472;23.936;2022-12-31T05:16:16;49.30;;;16.95;;
41829;SDS011;38614;43.472;23.936;2022-12-31T05:19:04;21.63;;;10.38;;
41829;SDS011;38614;43.472;23.936;2022-12-31T05:21:55;55.90;;;24.17;;
41829;SDS011;38614;43.472;23.936;2022-12-31T05:25:02;51.13;;;26.73;;
41829;SDS011;38614;43.472;23.936;2022-12-31T05:27:55;43.28;;;21.10;;
41829;SDS011;38614;43.472;23.936;2022-12-31T05:30:49;26.35;;;14.45;;
41829;SDS011;38614;43.472;23.936;2022-12-31T05:33:37;39.30;;;20.45;;
41829;SDS011;38614;43.472;23.936;2022-12-31T05:36:30;23.90;;;11.70;;
41829;SDS011;38614;43.472;23.936;2022-12-31T05:39:19;27.55;;;14.10;;
41829;SDS011;38614;43.472;23.936;2022-12-31T05:42:24;36.42;;;17.35;;
41829;SDS011;38614;43.472;23.936;2022-12-31T05:45:21;34.28;;;17.25;;
41829;SDS011;38614;43.472;23.936;2022-12-31T05:48:21;54.47;;;26.80;;
41829;SDS011;38614;43.472;23.936;2022-12-31T05:51:14;49.20;;;18.88;;
41829;SDS011;38614;43.472;23.936;2022-12-31T05:54:07;39.15;;;15.52;;
41829;SDS011;38614;43.472;23.936;2022-12-31T05:56:57;42.42;;;12.90;;
41829;SDS011;38614;43.472;23.936;2022-12-31T05:59:44;28.23;;;11.82;;
41829;SDS011;38614;43.472;23.936;2022-12-31T06:02:35;52.58;;;26.85;;
41829;SDS011;38614;43.472;23.936;2022-12-31T06:05:22;52.60;;;32.42;;
41829;SDS011;38614;43.472;23.936;2022-12-31T06:08:12;47.58;;;27.92;;
41829;SDS011;38614;43.472;23.936;2022-12-31T06:11:00;11.23;;;7.43;;
41829;SDS011;38614;43.472;23.936;2022-12-31T06:13:50;18.67;;;7.78;;
41829;SDS011;38614;43.472;23.936;2022-12-31T06:16:38;14.82;;;8.45;;
41829;SDS011;38614;43.472;23.936;2022-12-31T06:19:27;24.35;;;11.57;;
41829;SDS011;38614;43.472;23.936;2022-12-31T06:22:14;23.45;;;11.82;;
41829;SDS011;38614;43.472;23.936;2022-12-31T06:25:04;28.48;;;15.30;;
41829;SDS011;38614;43.472;23.936;2022-12-31T06:27:52;31.70;;;17.55;;
41829;SDS011;38614;43.472;23.936;2022-12-31T06:30:43;24.58;;;9.95;;
41829;SDS011;38614;43.472;23.936;2022-12-31T06:33:31;24.55;;;12.57;;
41829;SDS011;38614;43.472;23.936;2022-12-31T06:36:38;29.35;;;13.95;;
41829;SDS011;38614;43.472;23.936;2022-12-31T06:39:32;42.28;;;18.33;;
41829;SDS011;38614;43.472;23.936;2022-12-31T06:46:37;74.43;;;31.17;;
41829;SDS011;38614;43.472;23.936;2022-12-31T06:58:12;47.78;;;20.73;;
41829;SDS011;38614;43.472;23.936;2022-12-31T07:19:57;55.92;;;22.23;;
41829;SDS011;38614;43.472;23.936;2022-12-31T07:22:51;70.78;;;28.58;;
41829;SDS011;38614;43.472;23.936;2022-12-31T07:25:50;54.85;;;24.55;;
41829;SDS011;38614;43.472;23.936;2022-12-31T07:37:38;58.42;;;23.23;;
41829;SDS011;38614;43.472;23.936;2022-12-31T07:50:25;60.08;;;24.73;;
41829;SDS011;38614;43.472;23.936;2022-12-31T07:53:33;63.05;;;26.23;;
41829;SDS011;38614;43.472;23.936;2022-12-31T07:56:43;61.35;;;28.33;;
41829;SDS011;38614;43.472;23.936;2022-12-31T08:02:30;87.13;;;38.33;;
41829;SDS011;38614;43.472;23.936;2022-12-31T08:05:32;67.20;;;31.42;;
41829;SDS011;38614;43.472;23.936;2022-12-31T08:14:46;60.70;;;25.25;;
41829;SDS011;38614;43.472;23.936;2022-12-31T08:17:34;48.88;;;23.35;;
41829;SDS011;38614;43.472;23.936;2022-12-31T08:20:22;52.30;;;24.08;;
41829;SDS011;38614;43.472;23.936;2022-12-31T08:26:07;57.90;;;25.70;;
41829;SDS011;38614;43.472;23.936;2022-12-31T08:32:20;55.70;;;25.85;;
41829;SDS011;38614;43.472;23.936;2022-12-31T08:38:51;46.00;;;19.17;;
41829;SDS011;38614;43.472;23.936;2022-12-31T08:41:44;44.47;;;21.80;;
41829;SDS011;38614;43.472;23.936;2022-12-31T08:50:27;53.83;;;23.85;;
41829;SDS011;38614;43.472;23.936;2022-12-31T08:53:15;54.60;;;26.85;;
41829;SDS011;38614;43.472;23.936;2022-12-31T08:56:09;48.47;;;22.95;;
41829;SDS011;38614;43.472;23.936;2022-12-31T08:59:21;35.67;;;18.23;;
41829;SDS011;38614;43.472;23.936;2022-12-31T09:15:17;26.38;;;14.00;;
41829;SDS011;38614;43.472;23.936;2022-12-31T09:18:13;29.30;;;13.85;;
41829;SDS011;38614;43.472;23.936;2022-12-31T09:21:01;31.88;;;12.65;;
41829;SDS011;38614;43.472;23.936;2022-12-31T09:23:49;27.08;;;12.00;;
41829;SDS011;38614;43.472;23.936;2022-12-31T09:26:43;20.60;;;9.30;;
41829;SDS011;38614;43.472;23.936;2022-12-31T09:35:51;20.90;;;9.07;;
41829;SDS011;38614;43.472;23.936;2022-12-31T09:38:51;24.75;;;11.13;;
41829;SDS011;38614;43.472;23.936;2022-12-31T09:41:59;18.30;;;7.45;;
41829;SDS011;38614;43.472;23.936;2022-12-31T09:44:51;21.13;;;8.50;;
41829;SDS011;38614;43.472;23.936;2022-12-31T09:51:35;13.20;;;4.82;;
41829;SDS011;38614;43.472;23.936;2022-12-31T10:10:52;9.73;;;4.43;;
41829;SDS011;38614;43.472;23.936;2022-12-31T10:14:07;5.38;;;3.28;;
41829;SDS011;38614;43.472;23.936;2022-12-31T10:20:01;5.18;;;2.78;;
41829;SDS011;38614;43.472;23.936;2022-12-31T10:26:22;13.60;;;6.18;;
41829;SDS011;38614;43.472;23.936;2022-12-31T10:35:41;10.93;;;5.07;;
41829;SDS011;38614;43.472;23.936;2022-12-31T10:38:57;7.90;;;5.05;;
41829;SDS011;38614;43.472;23.936;2022-12-31T10:48:57;8.45;;;4.57;;
41829;SDS011;38614;43.472;23.936;2022-12-31T11:13:37;7.00;;;4.35;;
41829;SDS011;38614;43.472;23.936;2022-12-31T11:23:08;6.45;;;2.90;;
41829;SDS011;38614;43.472;23.936;2022-12-31T11:39:37;3.95;;;1.70;;
41829;SDS011;38614;43.472;23.936;2022-12-31T11:42:40;3.83;;;1.20;;
41829;SDS011;38614;43.472;23.936;2022-12-31T11:58:28;2.75;;;1.30;;
41829;SDS011;38614;43.472;23.936;2022-12-31T12:01:29;1.45;;;1.20;;
41829;SDS011;38614;43.472;23.936;2022-12-31T12:04:20;5.95;;;1.65;;
41829;SDS011;38614;43.472;23.936;2022-12-31T12:07:14;2.00;;;1.40;;
41829;SDS011;38614;43.472;23.936;2022-12-31T12:10:05;3.60;;;1.67;;
41829;SDS011;38614;43.472;23.936;2022-12-31T12:13:22;2.75;;;1.85;;
41829;SDS011;38614;43.472;23.936;2022-12-31T12:16:14;2.10;;;0.98;;
41829;SDS011;38614;43.472;23.936;2022-12-31T12:19:06;5.53;;;1.63;;
41829;SDS011;38614;43.472;23.936;2022-12-31T12:22:18;5.22;;;1.92;;
41829;SDS011;38614;43.472;23.936;2022-12-31T12:25:23;5.95;;;3.38;;
41829;SDS011;38614;43.472;23.936;2022-12-31T12:28:45;3.33;;;1.77;;
41829;SDS011;38614;43.472;23.936;2022-12-31T12:31:33;8.25;;;2.40;;
41829;SDS011;38614;43.472;23.936;2022-12-31T12:38:04;4.25;;;1.40;;
41829;SDS011;38614;43.472;23.936;2022-12-31T12:40:57;5.13;;;2.78;;
41829;SDS011;38614;43.472;23.936;2022-12-31T12:47:21;4.25;;;1.08;;
41829;SDS011;38614;43.472;23.936;2022-12-31T12:50:13;2.20;;;1.27;;
41829;SDS011;38614;43.472;23.936;2022-12-31T13:06:02;1.13;;;0.80;;
41829;SDS011;38614;43.472;23.936;2022-12-31T13:09:20;3.70;;;0.93;;
41829;SDS011;38614;43.472;23.936;2022-12-31T13:15:52;6.82;;;0.90;;
41829;SDS011;38614;43.472;23.936;2022-12-31T13:28:04;2.67;;;1.75;;
41829;SDS011;38614;43.472;23.936;2022-12-31T13:30:58;4.80;;;0.95;;
41829;SDS011;38614;43.472;23.936;2022-12-31T13:33:54;1.92;;;0.52;;
41829;SDS011;38614;43.472;23.936;2022-12-31T13:36:46;14.45;;;2.97;;
41829;SDS011;38614;43.472;23.936;2022-12-31T13:39:37;4.45;;;1.67;;
41829;SDS011;38614;43.472;23.936;2022-12-31T13:42:31;24.27;;;5.87;;
41829;SDS011;38614;43.472;23.936;2022-12-31T13:45:29;10.25;;;3.33;;
41829;SDS011;38614;43.472;23.936;2022-12-31T13:48:24;8.57;;;2.28;;
41829;SDS011;38614;43.472;23.936;2022-12-31T13:54:35;8.57;;;2.78;;
41829;SDS011;38614;43.472;23.936;2022-12-31T14:00:26;16.38;;;4.78;;
41829;SDS011;38614;43.472;23.936;2022-12-31T14:09:24;20.95;;;4.20;;
41829;SDS011;38614;43.472;23.936;2022-12-31T14:12:22;27.23;;;5.75;;
41829;SDS011;38614;43.472;23.936;2022-12-31T14:15:23;49.30;;;9.75;;
41829;SDS011;38614;43.472;23.936;2022-12-31T14:18:20;47.13;;;11.18;;
41829;SDS011;38614;43.472;23.936;2022-12-31T14:21:19;17.40;;;5.18;;
41829;SDS011;38614;43.472;23.936;2022-12-31T14:24:31;24.70;;;7.32;;
41829;SDS011;38614;43.472;23.936;2022-12-31T14:27:38;27.45;;;7.97;;
41829;SDS011;38614;43.472;23.936;2022-12-31T14:30:30;62.10;;;12.75;;
41829;SDS011;38614;43.472;23.936;2022-12-31T14:49:15;56.97;;;21.08;;
41829;SDS011;38614;43.472;23.936;2022-12-31T14:52:08;85.55;;;31.25;;
41829;SDS011;38614;43.472;23.936;2022-12-31T14:57:56;71.03;;;24.77;;
41829;SDS011;38614;43.472;23.936;2022-12-31T15:01:06;93.70;;;35.22;;
41829;SDS011;38614;43.472;23.936;2022-12-31T15:04:12;94.07;;;36.58;;
41829;SDS011;38614;43.472;23.936;2022-12-31T15:10:09;71.85;;;22.67;;
41829;SDS011;38614;43.472;23.936;2022-12-31T15:16:19;66.68;;;25.73;;
41829;SDS011;38614;43.472;23.936;2022-12-31T15:22:42;69.85;;;21.15;;
41829;SDS011;38614;43.472;23.936;2022-12-31T15:25:36;65.38;;;23.20;;
41829;SDS011;38614;43.472;23.936;2022-12-31T15:28:29;81.40;;;28.23;;
41829;SDS011;38614;43.472;23.936;2022-12-31T15:31:22;100.80;;;28.85;;
41829;SDS011;38614;43.472;23.936;2022-12-31T15:40:44;81.65;;;29.48;;
41829;SDS011;38614;43.472;23.936;2022-12-31T15:43:39;83.63;;;32.65;;
41829;SDS011;38614;43.472;23.936;2022-12-31T15:46:35;132.82;;;45.00;;
41829;SDS011;38614;43.472;23.936;2022-12-31T15:49:28;141.57;;;49.17;;
41829;SDS011;38614;43.472;23.936;2022-12-31T15:52:35;298.83;;;110.40;;
41829;SDS011;38614;43.472;23.936;2022-12-31T15:58:25;331.80;;;128.68;;
41829;SDS011;38614;43.472;23.936;2022-12-31T16:01:20;270.43;;;109.37;;
41829;SDS011;38614;43.472;23.936;2022-12-31T16:07:11;352.98;;;140.10;;
41829;SDS011;38614;43.472;23.936;2022-12-31T16:09:59;317.58;;;127.43;;
41829;SDS011;38614;43.472;23.936;2022-12-31T16:12:49;318.90;;;130.02;;
41829;SDS011;38614;43.472;23.936;2022-12-31T16:15:36;315.13;;;121.05;;
41829;SDS011;38614;43.472;23.936;2022-12-31T16:18:34;304.90;;;124.00;;
41829;SDS011;38614;43.472;23.936;2022-12-31T16:24:31;335.35;;;140.05;;
41829;SDS011;38614;43.472;23.936;2022-12-31T16:27:23;384.35;;;169.68;;
41829;SDS011;38614;43.472;23.936;2022-12-31T16:33:13;362.00;;;155.02;;
41829;SDS011;38614;43.472;23.936;2022-12-31T16:36:01;369.58;;;157.50;;
41829;SDS011;38614;43.472;23.936;2022-12-31T16:38:52;398.15;;;186.48;;
41829;SDS011;38614;43.472;23.936;2022-12-31T16:41:45;450.30;;;211.93;;
41829;SDS011;38614;43.472;23.936;2022-12-31T16:44:33;452.35;;;212.00;;
41829;SDS011;38614;43.472;23.936;2022-12-31T16:47:23;449.58;;;218.48;;
41829;SDS011;38614;43.472;23.936;2022-12-31T16:50:24;418.02;;;200.18;;
41829;SDS011;38614;43.472;23.936;2022-12-31T16:53:15;407.98;;;186.35;;
41829;SDS011;38614;43.472;23.936;2022-12-31T16:56:06;387.00;;;171.02;;
41829;SDS011;38614;43.472;23.936;2022-12-31T16:58:58;370.38;;;169.63;;
41829;SDS011;38614;43.472;23.936;2022-12-31T17:01:49;337.20;;;146.82;;
41829;SDS011;38614;43.472;23.936;2022-12-31T17:07:39;289.83;;;125.55;;
41829;SDS011;38614;43.472;23.936;2022-12-31T17:10:33;249.10;;;105.40;;
41829;SDS011;38614;43.472;23.936;2022-12-31T17:13:23;195.73;;;85.22;;
41829;SDS011;38614;43.472;23.936;2022-12-31T17:19:44;251.52;;;101.53;;
41829;SDS011;38614;43.472;23.936;2022-12-31T17:22:40;285.10;;;109.45;;
41829;SDS011;38614;43.472;23.936;2022-12-31T17:25:29;238.02;;;94.05;;
41829;SDS011;38614;43.472;23.936;2022-12-31T17:28:20;205.57;;;77.18;;
41829;SDS011;38614;43.472;23.936;2022-12-31T17:40:00;136.23;;;62.00;;
41829;SDS011;38614;43.472;23.936;2022-12-31T17:43:09;92.82;;;43.20;;
41829;SDS011;38614;43.472;23.936;2022-12-31T17:45:58;75.70;;;34.95;;
41829;SDS011;38614;43.472;23.936;2022-12-31T17:48:49;78.40;;;32.83;;
41829;SDS011;38614;43.472;23.936;2022-12-31T17:51:40;69.47;;;32.67;;
41829;SDS011;38614;43.472;23.936;2022-12-31T17:54:33;79.18;;;33.45;;
41829;SDS011;38614;43.472;23.936;2022-12-31T17:57:24;80.68;;;33.20;;
41829;SDS011;38614;43.472;23.936;2022-12-31T18:00:17;75.88;;;31.40;;
41829;SDS011;38614;43.472;23.936;2022-12-31T18:03:10;90.32;;;33.05;;
41829;SDS011;38614;43.472;23.936;2022-12-31T18:05:58;84.50;;;34.28;;
41829;SDS011;38614;43.472;23.936;2022-12-31T18:08:46;74.80;;;33.22;;
41829;SDS011;38614;43.472;23.936;2022-12-31T18:11:34;65.25;;;30.02;;
41829;SDS011;38614;43.472;23.936;2022-12-31T18:14:23;63.97;;;30.05;;
41829;SDS011;38614;43.472;23.936;2022-12-31T18:17:14;54.92;;;24.88;;
41829;SDS011;38614;43.472;23.936;2022-12-31T18:20:02;61.17;;;25.98;;
41829;SDS011;38614;43.472;23.936;2022-12-31T18:22:51;54.50;;;24.40;;
41829;SDS011;38614;43.472;23.936;2022-12-31T18:25:39;58.55;;;26.20;;
41829;SDS011;38614;43.472;23.936;2022-12-31T18:28:25;68.25;;;32.08;;
41829;SDS011;38614;43.472;23.936;2022-12-31T18:34:03;74.85;;;30.75;;
41829;SDS011;38614;43.472;23.936;2022-12-31T18:36:51;109.22;;;41.45;;
41829;SDS011;38614;43.472;23.936;2022-12-31T18:39:39;94.35;;;39.80;;
41829;SDS011;38614;43.472;23.936;2022-12-31T18:42:27;84.72;;;41.30;;
41829;SDS011;38614;43.472;23.936;2022-12-31T18:45:15;70.30;;;33.38;;
41829;SDS011;38614;43.472;23.936;2022-12-31T18:48:05;59.45;;;29.48;;
41829;SDS011;38614;43.472;23.936;2022-12-31T18:50:53;56.50;;;24.55;;
41829;SDS011;38614;43.472;23.936;2022-12-31T18:53:42;39.45;;;18.98;;
41829;SDS011;38614;43.472;23.936;2022-12-31T18:56:30;38.08;;;18.85;;
41829;SDS011;38614;43.472;23.936;2022-12-31T18:59:18;40.70;;;18.83;;
41829;SDS011;38614;43.472;23.936;2022-12-31T19:02:17;38.30;;;15.40;;
41829;SDS011;38614;43.472;23.936;2022-12-31T19:05:39;30.95;;;15.25;;
41829;SDS011;38614;43.472;23.936;2022-12-31T19:08:22;29.92;;;13.30;;
41829;SDS011;38614;43.472;23.936;2022-12-31T19:11:11;24.60;;;12.68;;
41829;SDS011;38614;43.472;23.936;2022-12-31T19:14:01;27.60;;;12.20;;
41829;SDS011;38614;43.472;23.936;2022-12-31T19:16:49;30.45;;;14.55;;
41829;SDS011;38614;43.472;23.936;2022-12-31T19:19:38;30.15;;;14.68;;
41829;SDS011;38614;43.472;23.936;2022-12-31T19:36:19;44.13;;;23.33;;
41829;SDS011;38614;43.472;23.936;2022-12-31T19:39:09;63.10;;;27.55;;
41829;SDS011;38614;43.472;23.936;2022-12-31T19:42:01;70.13;;;33.35;;
41829;SDS011;38614;43.472;23.936;2022-12-31T19:44:48;68.70;;;31.30;;
41829;SDS011;38614;43.472;23.936;2022-12-31T19:47:36;56.67;;;24.25;;
41829;SDS011;38614;43.472;23.936;2022-12-31T19:50:25;43.90;;;21.77;;
41829;SDS011;38614;43.472;23.936;2022-12-31T19:53:15;42.38;;;19.50;;
41829;SDS011;38614;43.472;23.936;2022-12-31T19:56:05;37.80;;;18.25;;
41829;SDS011;38614;43.472;23.936;2022-12-31T19:58:53;38.33;;;17.77;;
41829;SDS011;38614;43.472;23.936;2022-12-31T20:01:40;33.72;;;15.65;;
41829;SDS011;38614;43.472;23.936;2022-12-31T20:04:28;41.45;;;17.35;;
41829;SDS011;38614;43.472;23.936;2022-12-31T20:07:16;42.80;;;20.73;;
41829;SDS011;38614;43.472;23.936;2022-12-31T20:10:11;36.38;;;19.27;;
41829;SDS011;38614;43.472;23.936;2022-12-31T20:12:59;31.35;;;17.75;;
41829;SDS011;38614;43.472;23.936;2022-12-31T20:15:46;38.90;;;17.70;;
41829;SDS011;38614;43.472;23.936;2022-12-31T20:18:35;49.03;;;21.33;;
41829;SDS011;38614;43.472;23.936;2022-12-31T20:21:25;50.42;;;22.33;;
41829;SDS011;38614;43.472;23.936;2022-12-31T20:24:14;47.78;;;21.80;;
41829;SDS011;38614;43.472;23.936;2022-12-31T20:27:01;38.05;;;19.83;;
41829;SDS011;38614;43.472;23.936;2022-12-31T20:29:49;46.00;;;20.63;;
41829;SDS011;38614;43.472;23.936;2022-12-31T20:32:37;45.25;;;22.10;;
41829;SDS011;38614;43.472;23.936;2022-12-31T20:35:27;38.25;;;19.20;;
41829;SDS011;38614;43.472;23.936;2022-12-31T20:38:15;42.00;;;18.38;;
41829;SDS011;38614;43.472;23.936;2022-12-31T20:41:03;45.28;;;22.40;;
41829;SDS011;38614;43.472;23.936;2022-12-31T20:43:52;58.55;;;30.05;;
41829;SDS011;38614;43.472;23.936;2022-12-31T20:46:42;69.05;;;31.80;;
41829;SDS011;38614;43.472;23.936;2022-12-31T20:49:32;73.13;;;32.92;;
41829;SDS011;38614;43.472;23.936;2022-12-31T20:52:41;74.60;;;27.65;;
41829;SDS011;38614;43.472;23.936;2022-12-31T20:55:31;85.50;;;36.40;;
41829;SDS011;38614;43.472;23.936;2022-12-31T20:58:21;72.60;;;35.47;;
41829;SDS011;38614;43.472;23.936;2022-12-31T21:01:10;79.35;;;34.38;;
41829;SDS011;38614;43.472;23.936;2022-12-31T21:03:59;70.10;;;32.10;;
41829;SDS011;38614;43.472;23.936;2022-12-31T21:06:52;84.25;;;36.17;;
41829;SDS011;38614;43.472;23.936;2022-12-31T21:09:42;108.90;;;43.60;;
41829;SDS011;38614;43.472;23.936;2022-12-31T21:12:30;147.95;;;53.20;;
41829;SDS011;38614;43.472;23.936;2022-12-31T21:15:30;131.45;;;53.05;;
41829;SDS011;38614;43.472;23.936;2022-12-31T21:18:18;124.68;;;52.22;;
41829;SDS011;38614;43.472;23.936;2022-12-31T21:21:08;133.80;;;55.72;;
41829;SDS011;38614;43.472;23.936;2022-12-31T21:23:56;145.77;;;59.65;;
41829;SDS011;38614;43.472;23.936;2022-12-31T21:26:44;130.32;;;54.78;;
41829;SDS011;38614;43.472;23.936;2022-12-31T21:29:32;113.13;;;49.50;;
41829;SDS011;38614;43.472;23.936;2022-12-31T21:32:22;137.18;;;54.72;;
41829;SDS011;38614;43.472;23.936;2022-12-31T21:35:10;133.15;;;57.42;;
41829;SDS011;38614;43.472;23.936;2022-12-31T21:38:21;123.50;;;55.97;;
41829;SDS011;38614;43.472;23.936;2022-12-31T21:41:09;109.20;;;53.83;;
41829;SDS011;38614;43.472;23.936;2022-12-31T21:44:22;116.43;;;52.53;;
41829;SDS011;38614;43.472;23.936;2022-12-31T21:47:11;105.75;;;50.70;;
41829;SDS011;38614;43.472;23.936;2022-12-31T21:50:27;102.38;;;47.83;;
41829;SDS011;38614;43.472;23.936;2022-12-31T21:53:15;90.38;;;41.53;;
41829;SDS011;38614;43.472;23.936;2022-12-31T21:56:10;85.53;;;37.53;;
41829;SDS011;38614;43.472;23.936;2022-12-31T21:59:00;79.63;;;36.55;;
41829;SDS011;38614;43.472;23.936;2022-12-31T22:02:08;81.75;;;36.42;;
41829;SDS011;38614;43.472;23.936;2022-12-31T22:05:15;83.07;;;32.80;;
41829;SDS011;38614;43.472;23.936;2022-12-31T22:08:10;73.63;;;32.75;;
41829;SDS011;38614;43.472;23.936;2022-12-31T22:10:58;75.20;;;36.22;;
41829;SDS011;38614;43.472;23.936;2022-12-31T22:13:46;76.88;;;34.83;;
41829;SDS011;38614;43.472;23.936;2022-12-31T22:16:33;81.15;;;37.95;;
41829;SDS011;38614;43.472;23.936;2022-12-31T22:19:21;88.32;;;45.83;;
41829;SDS011;38614;43.472;23.936;2022-12-31T22:22:09;184.02;;;85.20;;